KEYW/EYW METAR and TAF weather

Enter ICAO airport designator
Station Type Date Time Source
KEYW METAR 2020/01/21 14:53 UTC NOAA

KEYW 211453Z 35015G23KT 10SM FEW025 18/11 A3017 RMK AO2 SLP214 T01780106 51015


Station Type Date Time Source
KEYW Decoded METAR 2020/01/21 14:53 UTC NOAA

KEY WEST INTERNATIONAL AIRPORT , FL, United States (KEYW) 24-33N 81-46W 5M
Jan 21, 2020 - 09:53 AM EST / 2020.01.21 1453 UTC
Wind: from the N (350 degrees) at 17 MPH (15 KT) gusting to 26 MPH (23 KT):0
Visibility: 10 mile(s):0
Sky conditions: mostly clear
Temperature: 64.0 F (17.8 C)
Dew Point: 51.1 F (10.6 C)
Relative Humidity: 62%
Pressure (altimeter): 30.17 in. Hg (1021 hPa)
Pressure tendency: 0.04 inches (1.5 hPa) higher than three hours ago
ob: KEYW 211453Z 35015G23KT 10SM FEW025 18/11 A3017 RMK AO2 SLP214 T01780106 51015
cycle: 15

Station Type Date Time Source
KEYW TAF 2020/01/21 15:15 UTC NOAA

TAF
AMD KEYW 211512Z 2115/2212 35015G22KT P6SM SCT025
FM211600 35015G22KT P6SM BKN025
TEMPO 2116/2120 SCT025
FM212300 34020G28KT P6SM FEW030

Example: see airport list